.
WxDataArchive / Data Records for 2013-11-22
2013-11-21 November 2013 2013-11-23

Data Records for Friday, 22 November 2013

Time	Temp	Chill	HIndex	Humid	Dewpt	 Wind 	HiWind	WindDir	Rain 	Barom 
-----	----	-----	------	-----	-----	------	------	-------	-----	----- 
00:00	48.0	48.0	48.0	96	46.9	0	1	112	0.00	30.154 
00:05	48.0	48.0	48.0	96	46.9	0	1	112	0.00	30.154 
00:10	48.0	48.0	48.0	96	46.9	0	1	112	0.01	30.154 
00:15	48.0	48.0	48.0	96	46.9	0	2	112	0.00	30.153 
00:20	48.0	48.0	48.0	96	46.9	0	1	112	0.00	30.153 
00:25	48.0	48.0	48.0	96	46.9	0	1	112	0.00	30.153 
00:30	48.0	48.0	48.0	96	46.9	0	1	112	0.01	30.155 
00:35	48.2	48.2	48.2	96	47.1	0	0	---	0.00	30.155 
00:40	48.2	48.2	48.2	96	47.1	0	1	112	0.00	30.155 
00:45	48.2	48.2	48.2	96	47.1	0	0	---	0.01	30.157 
00:50	48.2	48.2	48.2	96	47.1	0	1	112	0.00	30.157 
00:55	48.2	48.2	48.2	96	47.1	0	0	---	0.00	30.157 
01:00	48.2	48.2	48.2	96	47.1	0	1	112	0.00	30.155 
01:05	48.3	48.3	48.3	96	47.2	0	1	112	0.00	30.155 
01:10	48.3	48.3	48.3	96	47.2	0	1	112	0.01	30.155 
01:15	48.3	48.3	48.3	96	47.2	0	1	112	0.00	30.154 
01:20	48.3	48.3	48.3	96	47.2	0	0	---	0.00	30.154 
01:25	48.3	48.3	48.3	96	47.2	0	1	112	0.00	30.154 
01:30	48.3	48.3	48.3	96	47.2	0	1	112	0.00	30.154 
01:35	48.3	48.3	48.3	96	47.2	0	2	112	0.00	30.154 
01:40	48.3	48.3	48.3	96	47.2	0	1	112	0.00	30.154 
01:45	48.3	48.3	48.3	96	47.2	0	1	112	0.01	30.146 
01:50	48.3	48.3	48.3	96	47.2	0	1	112	0.00	30.146 
01:55	48.3	48.3	48.3	96	47.2	0	1	112	0.00	30.146 
02:00	48.3	48.3	48.3	96	47.2	0	1	112	0.00	30.145 
02:05	48.3	48.3	48.3	96	47.2	0	0	---	0.00	30.145 
02:10	48.3	48.3	48.3	96	47.2	0	1	112	0.00	30.145 
02:15	48.3	48.3	48.3	96	47.2	0	1	112	0.00	30.154 
02:20	48.3	48.3	48.3	96	47.2	0	1	112	0.00	30.154 
02:25	48.3	48.3	48.3	96	47.2	0	0	---	0.00	30.154 
02:30	48.3	48.3	48.3	96	47.2	0	0	---	0.00	30.154 
02:35	48.2	48.2	48.2	96	47.1	0	0	---	0.00	30.154 
02:40	48.2	48.2	48.2	96	47.1	0	2	112	0.00	30.154 
02:45	48.2	48.2	48.2	96	47.1	0	1	112	0.00	30.150 
02:50	48.0	48.0	48.0	96	46.9	0	1	112	0.00	30.150 
02:55	48.0	48.0	48.0	96	46.9	0	1	112	0.00	30.150 
03:00	48.0	48.0	48.0	96	46.9	0	0	---	0.00	30.150 
03:05	48.0	48.0	48.0	96	46.9	0	1	112	0.00	30.150 
03:10	47.9	47.9	47.9	96	46.8	0	1	112	0.00	30.150 
03:15	47.9	47.9	47.9	96	46.8	0	1	112	0.00	30.149 
03:20	47.7	47.7	47.7	96	46.6	0	1	112	0.00	30.149 
03:25	47.7	47.7	47.7	96	46.6	0	1	112	0.00	30.149 
03:30	47.7	47.7	47.7	96	46.6	0	1	112	0.00	30.143 
03:35	47.6	47.6	47.6	96	46.5	0	0	---	0.00	30.143 
03:40	47.6	47.6	47.6	96	46.5	0	1	112	0.00	30.143 
03:45	47.6	47.6	47.6	96	46.5	0	1	112	0.00	30.144 
03:50	47.6	47.6	47.6	96	46.5	0	1	112	0.00	30.144 
03:55	47.6	47.6	47.6	96	46.5	0	1	112	0.00	30.144 
04:00	47.6	47.6	47.6	96	46.5	0	1	112	0.00	30.140 
04:05	47.6	47.6	47.6	96	46.5	0	1	112	0.00	30.140 
04:10	47.4	47.4	47.4	96	46.3	0	1	112	0.00	30.140 
04:15	47.4	47.4	47.4	96	46.3	0	1	112	0.00	30.137 
04:20	47.4	47.4	47.4	96	46.3	0	1	112	0.00	30.137 
04:25	47.3	47.3	47.3	96	46.2	0	0	---	0.00	30.137 
04:30	47.3	47.3	47.3	96	46.2	0	1	112	0.00	30.141 
04:35	47.1	47.1	47.1	96	46.0	0	1	112	0.00	30.141 
04:40	47.1	47.1	47.1	96	46.0	0	1	112	0.00	30.141 
04:45	47.1	47.1	47.1	96	46.0	0	2	112	0.00	30.154 
04:50	47.0	47.0	47.0	96	45.9	0	2	112	0.00	30.154 
04:55	47.0	47.0	47.0	96	45.9	1	2	112	0.00	30.154 
05:00	46.8	46.8	46.8	96	45.7	0	2	112	0.00	30.155 
05:05	46.8	46.8	46.8	96	45.7	0	1	112	0.00	30.155 
05:10	46.7	46.7	46.7	96	45.6	0	1	112	0.00	30.155 
05:15	46.7	46.7	46.7	96	45.6	0	1	112	0.00	30.153 
05:20	46.7	46.7	46.7	96	45.6	0	1	112	0.00	30.153 
05:25	46.7	46.7	46.7	96	45.6	0	1	112	0.00	30.153 
05:30	46.7	46.7	46.7	96	45.6	0	0	---	0.00	30.142 
05:35	46.5	46.5	46.5	96	45.4	0	0	---	0.00	30.142 
05:40	46.5	46.5	46.5	96	45.4	0	1	112	0.00	30.142 
05:45	46.5	46.5	46.5	96	45.4	0	0	---	0.00	30.137 
05:50	46.4	46.4	46.4	96	45.3	0	0	---	0.00	30.137 
05:55	46.4	46.4	46.4	96	45.3	0	0	---	0.00	30.137 
06:00	46.4	46.4	46.4	96	45.3	0	1	112	0.00	30.145 
06:05	46.4	46.4	46.4	96	45.3	0	2	112	0.00	30.145 
06:10	46.4	46.4	46.4	96	45.3	0	1	112	0.00	30.145 
06:15	46.4	46.4	46.4	96	45.3	0	1	112	0.00	30.142 
06:20	46.4	46.4	46.4	96	45.3	0	1	112	0.00	30.142 
06:25	46.4	46.4	46.4	96	45.3	0	1	112	0.00	30.142 
06:30	46.4	46.4	46.4	96	45.3	0	1	112	0.00	30.154 
06:35	46.4	46.4	46.4	96	45.3	0	1	112	0.00	30.154 
06:40	46.4	46.4	46.4	96	45.3	0	1	112	0.00	30.154 
06:45	46.4	46.4	46.4	96	45.3	0	1	112	0.00	30.156 
06:50	46.4	46.4	46.4	96	45.3	0	1	112	0.00	30.156 
06:55	46.2	46.2	46.2	96	45.1	0	1	112	0.00	30.156 
07:00	46.2	46.2	46.2	96	45.1	0	2	112	0.00	30.154 
07:05	46.2	46.2	46.2	96	45.1	1	4	112	0.01	30.154 
07:10	46.2	46.2	46.2	96	45.1	0	3	112	0.00	30.154 
07:15	46.2	46.2	46.2	96	45.1	0	2	112	0.00	30.155 
07:20	46.2	46.2	46.2	96	45.1	1	2	112	0.00	30.155 
07:25	46.1	46.1	46.1	96	45.0	0	2	112	0.00	30.155 
07:30	46.1	46.1	46.1	96	45.0	0	2	112	0.00	30.168 
07:35	46.1	46.1	46.1	96	45.0	1	3	112	0.00	30.168 
07:40	46.1	46.1	46.1	96	45.0	1	3	112	0.00	30.168 
07:45	46.0	46.0	46.0	96	44.9	1	2	112	0.00	30.165 
07:50	46.0	46.0	46.0	96	44.9	0	1	112	0.00	30.165 
07:55	46.0	46.0	46.0	96	44.9	0	1	112	0.00	30.165 
08:00	46.0	46.0	46.0	96	44.9	0	1	112	0.00	30.168 
08:05	46.0	46.0	46.0	96	44.9	0	2	112	0.00	30.168 
08:10	46.0	46.0	46.0	96	44.9	0	2	112	0.00	30.168 
08:15	46.0	46.0	46.0	96	44.9	1	3	112	0.00	30.171 
08:20	46.0	46.0	46.0	96	44.9	0	2	22	0.00	30.171 
08:25	46.0	46.0	46.0	96	44.9	0	2	22	0.00	30.171 
08:30	45.8	45.8	45.8	96	44.7	1	3	22	0.00	30.185 
08:35	45.7	45.7	45.7	96	44.6	1	3	292	0.00	30.185 
08:40	45.5	45.5	45.5	96	44.4	2	6	338	0.00	30.185 
08:45	44.9	44.9	44.9	96	43.8	1	5	315	0.00	30.199 
08:50	44.6	44.6	44.6	96	43.5	1	6	315	0.00	30.199 
08:55	44.5	44.5	44.5	96	43.4	1	4	270	0.00	30.199 
09:00	44.3	44.3	44.3	96	43.2	1	3	315	0.00	30.197 
09:05	44.2	44.2	44.2	96	43.1	1	3	315	0.00	30.197 
09:10	44.2	44.2	44.2	96	43.1	0	2	315	0.00	30.197 
09:15	44.2	44.2	44.2	96	43.1	0	1	315	0.00	30.200 
09:20	44.2	44.2	44.2	95	42.9	1	3	315	0.00	30.200 
09:25	44.2	44.2	44.2	95	42.9	2	5	338	0.00	30.200 
09:30	44.1	44.1	44.1	95	42.8	2	5	315	0.00	30.206 
09:35	43.9	43.9	43.9	95	42.6	1	5	315	0.00	30.206 
09:40	43.8	43.8	43.8	95	42.5	1	4	315	0.00	30.206 
09:45	43.9	43.9	43.9	94	42.3	0	3	338	0.00	30.207 
09:50	43.9	43.9	43.9	94	42.3	0	3	338	0.00	30.207 
09:55	43.9	43.9	43.9	94	42.3	1	3	338	0.00	30.207 
10:00	43.8	43.8	43.8	93	41.9	2	7	338	0.00	30.219 
10:05	43.8	43.8	43.8	93	41.9	1	4	315	0.00	30.219 
10:10	43.8	43.8	43.8	93	41.9	1	4	315	0.00	30.219 
10:15	43.6	43.6	43.6	92	41.4	2	5	315	0.00	30.228 
10:20	43.5	43.5	43.5	92	41.3	1	3	315	0.00	30.228 
10:25	43.5	43.5	43.5	92	41.3	1	2	315	0.00	30.228 
10:30	43.6	43.6	43.6	92	41.4	1	3	315	0.00	30.234 
10:35	43.5	43.5	43.5	92	41.3	1	6	292	0.00	30.234 
10:40	43.3	43.3	43.3	91	40.9	1	7	315	0.00	30.234 
10:45	43.3	43.3	43.3	91	40.9	1	4	270	0.00	30.236 
10:50	43.3	43.3	43.3	91	40.9	1	4	270	0.00	30.236 
10:55	43.3	43.3	43.3	91	40.9	2	5	270	0.00	30.236 
11:00	43.3	43.3	43.3	91	40.9	0	3	270	0.00	30.236 
11:05	43.3	43.3	43.3	90	40.6	1	3	270	0.00	30.236 
11:10	43.5	43.5	43.5	90	40.8	1	4	270	0.00	30.236 
11:15	43.5	43.5	43.5	90	40.8	1	4	292	0.00	30.234 
11:20	43.5	43.5	43.5	90	40.8	1	3	292	0.00	30.234 
11:25	43.5	43.5	43.5	89	40.5	1	4	292	0.00	30.234 
11:30	43.3	43.3	43.3	89	40.3	1	4	315	0.00	30.237 
11:35	43.5	43.5	43.5	89	40.5	1	4	338	0.00	30.237 
11:40	43.3	43.3	43.3	89	40.3	2	4	315	0.00	30.237 
11:45	43.3	43.3	43.3	89	40.3	1	3	292	0.00	30.241 
11:50	43.2	43.2	43.2	89	40.2	2	7	292	0.00	30.241 
11:55	43.1	43.1	43.1	89	40.1	3	9	338	0.00	30.241 
12:00	42.9	42.9	42.9	89	39.9	3	6	292	0.00	30.242 
12:05	42.8	42.8	42.8	89	39.8	2	5	315	0.00	30.242 
12:10	42.6	42.6	42.6	89	39.6	2	7	292	0.00	30.242 
12:15	42.6	42.6	42.6	89	39.6	2	5	315	0.00	30.237 
12:20	42.6	42.6	42.6	89	39.6	2	6	315	0.00	30.237 
12:25	42.8	42.8	42.8	88	39.5	1	6	315	0.00	30.237 
12:30	42.8	42.8	42.8	88	39.5	1	6	315	0.00	30.238 
12:35	42.6	42.6	42.6	87	39.0	2	7	292	0.00	30.238 
12:40	42.5	42.5	42.5	85	38.3	3	7	292	0.00	30.238 
12:45	42.3	42.3	42.3	84	37.8	3	7	338	0.00	30.249 
12:50	42.2	42.2	42.2	83	37.4	3	7	292	0.00	30.249 
12:55	42.3	42.3	42.3	83	37.5	2	4	315	0.00	30.249 
13:00	42.3	42.3	42.3	83	37.5	2	5	270	0.00	30.250 
13:05	42.2	39.9	42.2	82	37.1	4	11	0	0.00	30.250 
13:10	42.2	42.2	42.2	82	37.1	2	5	315	0.00	30.250 
13:15	41.9	41.9	41.9	82	36.8	3	10	338	0.00	30.252 
13:20	41.8	41.8	41.8	82	36.7	3	9	292	0.00	30.252 
13:25	41.6	41.6	41.6	82	36.5	3	7	338	0.00	30.252 
13:30	41.5	41.5	41.5	82	36.4	2	7	292	0.00	30.253 
13:35	41.3	41.3	41.3	81	35.9	3	9	338	0.00	30.253 
13:40	41.5	41.5	41.5	82	36.4	2	6	315	0.00	30.253 
13:45	41.3	41.3	41.3	81	35.9	3	9	292	0.00	30.262 
13:50	41.2	41.2	41.2	81	35.8	2	6	315	0.00	30.262 
13:55	41.1	38.6	41.1	80	35.4	4	7	292	0.00	30.262 
14:00	40.9	38.4	40.9	79	34.9	4	7	292	0.00	30.267 
14:05	40.8	40.8	40.8	79	34.8	3	6	338	0.00	30.267 
14:10	40.8	40.8	40.8	78	34.5	3	7	315	0.00	30.267 
14:15	40.6	40.6	40.6	78	34.3	3	7	292	0.00	30.267 
14:20	40.6	40.6	40.6	77	34.0	2	6	292	0.00	30.267 
14:25	40.8	40.8	40.8	77	34.2	2	5	315	0.00	30.267 
14:30	40.6	40.6	40.6	76	33.6	3	7	315	0.00	30.267 
14:35	40.8	40.8	40.8	76	33.8	2	6	0	0.00	30.267 
14:40	40.8	40.8	40.8	76	33.8	2	6	338	0.00	30.267 
14:45	40.8	40.8	40.8	77	34.2	1	6	315	0.00	30.265 
14:50	40.8	40.8	40.8	77	34.2	1	4	315	0.00	30.265 
14:55	40.8	40.8	40.8	77	34.2	2	5	338	0.00	30.265 
15:00	40.9	40.9	40.9	77	34.3	1	5	315	0.00	30.267 
15:05	40.8	40.8	40.8	76	33.8	2	6	270	0.00	30.267 
15:10	40.6	40.6	40.6	73	32.6	3	7	338	0.00	30.267 
15:15	40.5	40.5	40.5	73	32.5	3	7	292	0.00	30.271 
15:20	40.5	40.5	40.5	73	32.5	2	5	292	0.00	30.271 
15:25	40.5	40.5	40.5	73	32.5	2	5	292	0.00	30.271 
15:30	40.5	40.5	40.5	72	32.2	2	5	292	0.00	30.271 
15:35	40.6	40.6	40.6	72	32.3	3	5	338	0.00	30.271 
15:40	40.8	40.8	40.8	71	32.1	2	5	315	0.00	30.271 
15:45	40.9	40.9	40.9	69	31.5	2	6	292	0.00	30.280 
15:50	40.8	40.8	40.8	69	31.4	3	7	0	0.00	30.280 
15:55	40.8	40.8	40.8	69	31.4	2	6	292	0.00	30.280 
16:00	40.8	40.8	40.8	69	31.4	3	10	0	0.00	30.291 
16:05	40.6	40.6	40.6	69	31.2	3	5	315	0.00	30.291 
16:10	40.5	40.5	40.5	70	31.5	2	7	315	0.00	30.291 
16:15	40.3	40.3	40.3	70	31.3	2	6	338	0.00	30.302 
16:20	40.2	40.2	40.2	71	31.6	1	6	292	0.00	30.302 
16:25	40.2	40.2	40.2	69	30.9	3	9	338	0.00	30.302 
16:30	40.1	40.1	40.1	68	30.4	3	7	292	0.00	30.318 
16:35	39.9	39.9	39.9	68	30.2	2	5	292	0.00	30.318 
16:40	39.8	39.8	39.8	68	30.1	3	7	292	0.00	30.318 
16:45	39.5	39.5	39.5	69	30.2	2	6	338	0.00	30.326 
16:50	39.3	39.3	39.3	69	30.0	3	7	270	0.00	30.326 
16:55	39.2	39.2	39.2	69	29.9	3	10	338	0.00	30.326 
17:00	39.2	39.2	39.2	70	30.3	2	5	338	0.00	30.335 
17:05	38.9	38.9	38.9	69	29.6	2	5	0	0.00	30.335 
17:10	38.8	38.8	38.8	69	29.5	3	10	270	0.00	30.335 
17:15	38.6	38.6	38.6	70	29.7	1	5	270	0.00	30.339 
17:20	38.5	38.5	38.5	69	29.2	2	5	315	0.00	30.339 
17:25	38.3	38.3	38.3	69	29.0	2	6	0	0.00	30.339 
17:30	38.2	38.2	38.2	70	29.3	1	6	292	0.00	30.349 
17:35	38.0	38.0	38.0	70	29.1	1	7	338	0.00	30.349 
17:40	37.9	37.9	37.9	71	29.4	1	4	338	0.00	30.349 
17:45	37.9	37.9	37.9	71	29.4	2	5	315	0.00	30.353 
17:50	37.8	37.8	37.8	71	29.3	2	5	338	0.00	30.353 
17:55	37.8	37.8	37.8	71	29.3	3	6	315	0.00	30.353 
18:00	37.9	37.9	37.9	69	28.7	3	7	338	0.00	30.366 
18:05	37.8	37.8	37.8	68	28.2	3	10	338	0.00	30.366 
18:10	37.8	37.8	37.8	68	28.2	2	6	338	0.00	30.366 
18:15	37.6	37.6	37.6	68	28.0	2	5	338	0.00	30.367 
18:20	37.5	37.5	37.5	68	27.9	1	4	270	0.00	30.367 
18:25	37.3	37.3	37.3	68	27.7	2	5	338	0.00	30.367 
18:30	37.2	37.2	37.2	68	27.6	2	4	0	0.00	30.376 
18:35	37.0	37.0	37.0	69	27.8	0	3	315	0.00	30.376 
18:40	36.9	36.9	36.9	69	27.7	1	3	315	0.00	30.376 
18:45	36.9	36.9	36.9	69	27.7	1	3	315	0.00	30.380 
18:50	36.9	36.9	36.9	69	27.7	1	4	292	0.00	30.380 
18:55	36.9	36.9	36.9	69	27.7	1	3	315	0.00	30.380 
19:00	36.9	36.9	36.9	69	27.7	0	2	315	0.00	30.386 
19:05	36.8	36.8	36.8	69	27.6	1	5	315	0.00	30.386 
19:10	36.6	36.6	36.6	68	27.1	1	6	338	0.00	30.386 
19:15	36.5	36.5	36.5	67	26.6	1	6	338	0.00	30.387 
19:20	36.2	36.2	36.2	67	26.3	1	4	292	0.00	30.387 
19:25	36.0	36.0	36.0	67	26.1	1	5	270	0.00	30.387 
19:30	35.9	35.9	35.9	67	26.0	1	3	270	0.00	30.396 
19:35	35.8	35.8	35.8	68	26.3	1	4	315	0.00	30.396 
19:40	35.5	35.5	35.5	69	26.4	1	5	315	0.00	30.396 
19:45	35.5	35.5	35.5	69	26.4	1	4	338	0.00	30.399 
19:50	35.2	35.2	35.2	69	26.1	1	5	338	0.00	30.399 
19:55	35.0	35.0	35.0	69	25.9	1	3	338	0.00	30.399 
20:00	34.9	34.9	34.9	70	26.1	0	3	292	0.00	30.403 
20:05	34.7	34.7	34.7	70	25.9	0	2	292	0.00	30.403 
20:10	34.6	34.6	34.6	71	26.2	0	2	292	0.00	30.403 
20:15	34.4	34.4	34.4	71	26.0	0	2	292	0.00	30.403 
20:20	34.3	34.3	34.3	71	25.9	0	2	292	0.00	30.403 
20:25	34.1	34.1	34.1	71	25.7	0	2	292	0.00	30.403 
20:30	34.0	34.0	34.0	71	25.6	1	5	338	0.00	30.404 
20:35	34.0	34.0	34.0	70	25.3	0	2	338	0.00	30.404 
20:40	33.8	33.8	33.8	71	25.4	0	2	338	0.00	30.404 
20:45	33.7	33.7	33.7	71	25.3	0	2	338	0.00	30.404 
20:50	33.5	33.5	33.5	71	25.1	0	1	338	0.00	30.404 
20:55	33.4	33.4	33.4	72	25.4	0	1	338	0.00	30.404 
21:00	33.1	33.1	33.1	72	25.1	0	2	338	0.00	30.403 
21:05	33.1	33.1	33.1	72	25.1	0	1	338	0.00	30.403 
21:10	32.9	32.9	32.9	72	24.9	0	2	338	0.00	30.403 
21:15	32.8	32.8	32.8	72	24.8	0	1	338	0.00	30.404 
21:20	32.7	32.7	32.7	72	24.7	0	2	338	0.00	30.404 
21:25	32.5	32.5	32.5	72	24.5	0	0	---	0.00	30.404 
21:30	32.4	32.4	32.4	73	24.7	0	1	338	0.00	30.394 
21:35	32.2	32.2	32.2	73	24.5	0	0	---	0.00	30.394 
21:40	32.1	32.1	32.1	73	24.4	0	1	338	0.00	30.394 
21:45	31.8	31.8	31.8	74	24.5	0	0	---	0.00	30.396 
21:50	31.6	31.6	31.6	74	24.3	0	0	---	0.00	30.396 
21:55	31.5	31.5	31.5	74	24.2	0	0	---	0.00	30.396 
22:00	31.2	31.2	31.2	75	24.2	0	0	---	0.00	30.396 
22:05	31.0	31.0	31.0	75	24.0	0	0	---	0.00	30.396 
22:10	30.7	30.7	30.7	76	24.0	0	0	---	0.00	30.396 
22:15	30.4	30.4	30.4	76	23.8	0	0	---	0.00	30.393 
22:20	30.3	30.3	30.3	77	24.0	0	0	---	0.00	30.393 
22:25	30.0	30.0	30.0	77	23.7	0	0	---	0.00	30.393 
22:30	29.8	29.8	29.8	78	23.8	0	0	---	0.00	30.405 
22:35	29.8	29.8	29.8	79	24.1	0	0	---	0.00	30.405 
22:40	29.8	29.8	29.8	79	24.1	0	0	---	0.00	30.405 
22:45	29.7	29.7	29.7	79	24.0	0	0	---	0.00	30.406 
22:50	29.5	29.5	29.5	79	23.8	0	0	---	0.00	30.406 
22:55	29.4	29.4	29.4	79	23.7	0	0	---	0.00	30.406 
23:00	29.1	29.1	29.1	80	23.7	0	0	---	0.00	30.407 
23:05	28.8	28.8	28.8	80	23.4	0	0	---	0.00	30.407 
23:10	28.7	28.7	28.7	80	23.3	0	0	---	0.00	30.407 
23:15	28.5	28.5	28.5	81	23.4	0	0	---	0.00	30.406 
23:20	28.4	28.4	28.4	82	23.6	0	0	---	0.00	30.406 
23:25	28.5	28.5	28.5	82	23.7	0	0	---	0.00	30.406 
23:30	28.5	28.5	28.5	82	23.7	0	0	---	0.00	30.409 
23:35	28.7	28.7	28.7	83	24.2	0	0	---	0.00	30.409 
23:40	28.7	28.7	28.7	83	24.2	0	0	---	0.00	30.409 
23:45	28.7	28.7	28.7	83	24.2	0	0	---	0.00	30.408 
23:50	28.7	28.7	28.7	83	24.2	0	0	---	0.00	30.408 
23:55	28.5	28.5	28.5	83	24.0	0	0	---	0.00	30.408 

CoCoRaHS
IN-AL-39
A2 Web Hosting
Creative Commons License
GoDaddy
search engine by freefind advanced

loaded 2018-11-17 14:46:54 • last modified 2010-11-18 10:43:29
Privacy PolicyDisclaimer
• wx.awcolley.com is powered by PmWiki v.2002016 •
• all content (unless otherwise noted) © 2018 A W Colley